Time;durP1;ratioP1;P1;durP2;ratioP2;P2;SDS_P1;SDS_P2;PMS_P1;PMS_P2;Temp;Humidity;BMP_temperature;BMP_pressure;BME280_temperature;BME280_humidity;BME280_pressure;Samples;Min_cycle;Max_cycle;Signal;HPM_P1;HPM_P2
2022/08/29 00:00:36;;;;;;;9.98;8.25;;;;;;;15.54;100.00;94612.00;1742769;81;21056;-46
2022/08/29 00:03:05;;;;;;;12.25;7.95;;;;;;;15.51;100.00;94611.58;1741451;81;21053;-46
2022/08/29 00:05:35;;;;;;;12.43;8.83;;;;;;;15.50;100.00;94607.89;1745386;81;21112;-46
2022/08/29 00:08:03;;;;;;;10.93;8.58;;;;;;;15.51;100.00;94602.52;1745581;81;21036;-46
2022/08/29 00:10:32;;;;;;;12.82;8.55;;;;;;;15.49;100.00;94602.20;1739118;81;21075;-46
2022/08/29 00:13:00;;;;;;;11.85;8.95;;;;;;;15.45;100.00;94609.36;1747729;81;21057;-46
2022/08/29 00:15:29;;;;;;;11.05;8.08;;;;;;;15.44;100.00;94607.05;1742136;81;21608;-46
2022/08/29 00:17:57;;;;;;;9.80;8.63;;;;;;;15.41;100.00;94606.03;1749274;81;21040;-46
2022/08/29 00:20:27;;;;;;;12.58;7.47;;;;;;;15.39;100.00;94604.97;1745234;80;21097;-46
2022/08/29 00:22:55;;;;;;;11.00;7.62;;;;;;;15.38;100.00;94602.80;1736096;80;21147;-46
2022/08/29 00:25:22;;;;;;;9.58;7.42;;;;;;;15.38;100.00;94604.83;1737636;81;21155;-46
2022/08/29 00:27:50;;;;;;;10.25;8.03;;;;;;;15.39;100.00;94605.72;1741131;80;21076;-47
2022/08/29 00:30:18;;;;;;;13.72;6.97;;;;;;;15.43;100.00;94616.01;1725962;81;21068;-46
2022/08/29 00:32:47;;;;;;;13.45;8.00;;;;;;;15.44;100.00;94611.99;1738924;81;21013;-46
2022/08/29 00:35:25;;;;;;;14.95;7.80;;;;;;;15.45;100.00;94608.58;1726647;81;21289;-45
2022/08/29 00:37:53;;;;;;;13.28;7.37;;;;;;;15.39;100.00;94611.90;1751183;81;21640;-46
2022/08/29 00:40:25;;;;;;;8.00;6.40;;;;;;;15.38;100.00;94609.73;1743840;80;20981;-45
2022/08/29 00:42:53;;;;;;;9.58;7.97;;;;;;;15.36;100.00;94609.45;1721155;81;21001;-46
2022/08/29 00:45:21;;;;;;;9.60;7.62;;;;;;;15.27;100.00;94609.55;1743161;81;21493;-47
2022/08/29 00:48:09;;;;;;;10.45;7.62;;;;;;;15.25;100.00;94601.56;1748169;80;21757;-47
2022/08/29 00:50:40;;;;;;;11.83;7.00;;;;;;;15.23;100.00;94608.99;1745489;81;20977;-47
2022/08/29 00:53:12;;;;;;;10.13;6.50;;;;;;;15.15;100.00;94613.37;1746601;81;20977;-47
2022/08/29 00:55:40;;;;;;;11.73;6.25;;;;;;;15.09;100.00;94606.99;1749097;82;21017;-46
2022/08/29 00:58:19;;;;;;;9.53;6.67;;;;;;;15.03;100.00;94607.50;1748794;81;20930;-48
2022/08/29 01:00:48;;;;;;;8.78;7.40;;;;;;;14.99;100.00;94615.25;1739166;81;21228;-46
2022/08/29 01:03:16;;;;;;;11.15;8.15;;;;;;;14.98;100.00;94602.64;1749666;81;21037;-46
2022/08/29 01:05:45;;;;;;;8.28;7.22;;;;;;;14.97;100.00;94607.30;1738771;81;20958;-46
2022/08/29 01:08:13;;;;;;;6.33;5.83;;;;;;;14.95;100.00;94606.38;1739265;81;20991;-46
2022/08/29 01:13:34;;;;;;;6.85;5.35;;;;;;;14.89;100.00;94608.30;1749607;81;21300;-45
2022/08/29 01:16:02;;;;;;;9.13;7.20;;;;;;;14.80;100.00;94593.14;1748568;81;20982;-46
2022/08/29 01:18:32;;;;;;;12.47;7.95;;;;;;;14.74;100.00;94606.14;1738660;81;21026;-46
2022/08/29 01:21:18;;;;;;;10.93;7.05;;;;;;;14.76;100.00;94603.66;1746150;80;20981;-46
2022/08/29 01:24:07;;;;;;;11.08;6.65;;;;;;;14.76;100.00;94598.12;1747630;80;20918;-47
2022/08/29 01:26:36;;;;;;;10.90;8.23;;;;;;;14.80;100.00;94604.22;1742933;81;21100;-46
2022/08/29 01:29:04;;;;;;;9.25;8.30;;;;;;;14.83;100.00;94592.81;1739903;81;21025;-47
2022/08/29 01:31:47;;;;;;;9.35;7.65;;;;;;;14.80;100.00;94594.53;1740601;82;21034;-46
2022/08/29 01:34:15;;;;;;;9.40;7.62;;;;;;;14.82;100.00;94592.04;1741142;81;21691;-46
2022/08/29 01:36:54;;;;;;;7.62;6.87;;;;;;;14.86;100.00;94604.33;1728588;81;21471;-46
2022/08/29 01:39:27;;;;;;;11.10;5.92;;;;;;;14.86;100.00;94598.17;1743496;81;21752;-46
2022/08/29 01:41:57;;;;;;;8.08;7.03;;;;;;;14.88;100.00;94599.06;1746530;81;20950;-46
2022/08/29 01:44:25;;;;;;;11.38;6.92;;;;;;;14.92;100.00;94595.48;1742987;81;20938;-46
2022/08/29 01:46:55;;;;;;;8.43;6.97;;;;;;;14.94;100.00;94597.92;1748846;81;21838;-46
2022/08/29 01:49:23;;;;;;;6.97;6.37;;;;;;;14.93;100.00;94598.39;1736529;81;20942;-46
2022/08/29 01:51:51;;;;;;;7.47;6.22;;;;;;;14.94;100.00;94597.92;1749353;81;21130;-46
2022/08/29 01:54:19;;;;;;;8.93;7.85;;;;;;;14.95;100.00;94592.52;1747499;81;20973;-46
2022/08/29 01:56:50;;;;;;;7.50;6.62;;;;;;;14.94;100.00;94603.46;1731747;81;20984;-46
2022/08/29 01:59:22;;;;;;;11.75;7.78;;;;;;;14.92;100.00;94598.25;1744558;81;21572;-46
2022/08/29 02:02:03;;;;;;;9.80;7.43;;;;;;;14.86;100.00;94593.25;1747376;81;21112;-46
2022/08/29 02:04:31;;;;;;;10.53;6.28;;;;;;;14.89;100.00;94595.83;1740085;81;21303;-46
2022/08/29 02:06:59;;;;;;;7.20;6.45;;;;;;;14.93;100.00;94599.17;1745070;81;21420;-46
2022/08/29 02:09:27;;;;;;;14.40;6.65;;;;;;;14.95;100.00;94593.91;1740167;81;21066;-46
2022/08/29 02:11:57;;;;;;;13.08;7.33;;;;;;;14.95;100.00;94603.60;1741328;81;20950;-46
2022/08/29 02:14:25;;;;;;;12.40;7.75;;;;;;;14.93;100.00;94599.17;1724550;81;21002;-46
2022/08/29 02:16:53;;;;;;;8.35;6.67;;;;;;;14.95;100.00;94595.30;1746704;81;21243;-46
2022/08/29 02:19:20;;;;;;;11.33;7.10;;;;;;;14.92;100.00;94596.86;1740235;80;21105;-46
2022/08/29 02:21:50;;;;;;;14.00;7.05;;;;;;;14.90;100.00;94600.13;1745365;81;21587;-46
2022/08/29 02:24:18;;;;;;;20.05;7.17;;;;;;;14.93;100.00;94602.55;1748569;80;21112;-47
2022/08/29 02:26:46;;;;;;;7.30;6.62;;;;;;;14.98;100.00;94604.66;1719693;81;21053;-47
2022/08/29 02:29:13;;;;;;;10.45;7.33;;;;;;;15.03;100.00;94607.50;1747895;81;21214;-47
2022/08/29 02:31:43;;;;;;;10.40;6.90;;;;;;;15.07;100.00;94605.94;1752855;81;20976;-47
2022/08/29 02:34:10;;;;;;;18.87;8.63;;;;;;;15.05;100.00;94607.04;1744060;81;20996;-47
2022/08/29 02:36:40;;;;;;;14.20;8.33;;;;;;;15.01;100.00;94611.38;1744418;81;21068;-47
2022/08/29 02:39:09;;;;;;;14.75;8.73;;;;;;;14.96;100.00;94605.77;1744297;80;21072;-47
2022/08/29 02:41:36;;;;;;;11.48;7.55;;;;;;;14.98;100.00;94605.41;1746635;81;21158;-47
2022/08/29 02:44:04;;;;;;;14.45;8.90;;;;;;;15.01;100.00;94603.06;1749381;81;20989;-46
2022/08/29 02:46:32;;;;;;;13.15;7.95;;;;;;;15.00;100.00;94602.92;1744730;81;21075;-46
2022/08/29 02:49:00;;;;;;;7.78;6.83;;;;;;;15.00;100.00;94598.02;1744532;81;21076;-46
2022/08/29 02:51:30;;;;;;;12.13;7.47;;;;;;;15.03;100.00;94608.89;1725333;81;20969;-46
2022/08/29 02:53:58;;;;;;;15.50;7.28;;;;;;;15.01;100.00;94597.52;1747228;81;21130;-46
2022/08/29 02:56:26;;;;;;;8.23;7.30;;;;;;;14.98;100.00;94604.03;1740426;82;20935;-46
2022/08/29 02:58:54;;;;;;;13.45;7.08;;;;;;;14.94;100.00;94599.31;1746685;81;20953;-46
2022/08/29 03:01:22;;;;;;;9.08;6.75;;;;;;;14.94;100.00;94605.45;1750529;81;20938;-46
2022/08/29 03:03:51;;;;;;;10.68;6.90;;;;;;;14.93;100.00;94606.09;1744394;81;20950;-46
2022/08/29 03:06:19;;;;;;;9.83;6.67;;;;;;;14.94;100.00;94614.55;1744925;81;21244;-46
2022/08/29 03:08:48;;;;;;;12.07;6.83;;;;;;;14.89;100.00;94609.69;1746560;81;21033;-46
2022/08/29 03:11:16;;;;;;;8.28;6.53;;;;;;;14.77;100.00;94606.56;1746583;81;21544;-46
2022/08/29 03:13:44;;;;;;;7.12;6.42;;;;;;;14.71;100.00;94605.72;1749125;81;21087;-46
2022/08/29 03:16:13;;;;;;;7.70;6.92;;;;;;;14.65;100.00;94608.23;1749511;81;20949;-46
2022/08/29 03:18:41;;;;;;;12.93;7.28;;;;;;;14.57;100.00;94614.77;1743656;81;21258;-46
2022/08/29 03:21:15;;;;;;;8.73;6.65;;;;;;;14.51;100.00;94618.06;1724134;81;21521;-46
2022/08/29 03:23:43;;;;;;;9.18;5.75;;;;;;;14.51;100.00;94615.29;1740065;81;21045;-46
2022/08/29 03:26:11;;;;;;;7.85;6.15;;;;;;;14.53;100.00;94614.20;1745847;81;21488;-46
2022/08/29 03:28:39;;;;;;;11.18;6.90;;;;;;;14.46;100.00;94615.93;1747822;81;20990;-47
2022/08/29 03:31:07;;;;;;;6.50;5.90;;;;;;;14.45;100.00;94620.58;1741550;81;21311;-47
2022/08/29 03:33:37;;;;;;;11.95;6.80;;;;;;;14.44;100.00;94623.95;1721156;81;20982;-47
2022/08/29 03:36:05;;;;;;;6.85;5.87;;;;;;;14.40;100.00;94623.23;1746710;81;20985;-47
2022/08/29 03:38:34;;;;;;;8.43;7.08;;;;;;;14.38;100.00;94631.25;1746552;81;21477;-45
2022/08/29 03:41:03;;;;;;;12.88;7.30;;;;;;;14.36;100.00;94633.73;1744528;81;20977;-45
2022/08/29 03:43:31;;;;;;;11.78;7.28;;;;;;;14.38;100.00;94634.77;1746849;81;21241;-47
2022/08/29 03:45:59;;;;;;;8.45;6.92;;;;;;;14.45;100.00;94633.03;1747779;81;21092;-47
2022/08/29 03:48:27;;;;;;;11.73;6.25;;;;;;;14.54;100.00;94627.41;1747767;81;21053;-47
2022/08/29 03:50:55;;;;;;;11.00;6.30;;;;;;;14.65;100.00;94628.36;1718035;81;21018;-47
2022/08/29 03:53:23;;;;;;;8.98;7.22;;;;;;;14.74;100.00;94631.06;1748451;81;20985;-47
2022/08/29 03:55:50;;;;;;;10.90;6.55;;;;;;;14.81;100.00;94635.47;1745167;81;21226;-47
2022/08/29 03:58:18;;;;;;;12.73;7.97;;;;;;;14.82;100.00;94637.74;1745374;81;21402;-47
2022/08/29 04:00:46;;;;;;;9.03;6.78;;;;;;;14.77;100.00;94639.80;1743493;81;20958;-47
2022/08/29 04:03:13;;;;;;;10.18;6.62;;;;;;;14.75;100.00;94640.90;1745865;81;21014;-49
2022/08/29 04:05:42;;;;;;;13.30;7.03;;;;;;;14.73;100.00;94639.23;1715452;81;20994;-46
2022/08/29 04:08:10;;;;;;;12.00;6.55;;;;;;;14.72;100.00;94641.08;1715791;82;21120;-47
2022/08/29 04:10:38;;;;;;;7.75;6.40;;;;;;;14.75;100.00;94640.90;1747561;81;21441;-47
2022/08/29 04:13:06;;;;;;;10.70;6.85;;;;;;;14.74;100.00;94647.68;1725517;81;21410;-48
2022/08/29 04:15:34;;;;;;;10.58;6.50;;;;;;;14.72;100.00;94644.63;1747713;81;20958;-46
2022/08/29 04:18:04;;;;;;;8.53;6.70;;;;;;;14.75;100.00;94641.50;1721706;81;21095;-47
2022/08/29 04:20:34;;;;;;;8.35;6.97;;;;;;;14.75;100.00;94649.20;1749266;81;21887;-46
2022/08/29 04:23:02;;;;;;;11.03;6.60;;;;;;;14.74;100.00;94644.91;1742341;80;20982;-47
2022/08/29 04:25:35;;;;;;;9.33;7.17;;;;;;;14.68;100.00;94639.12;1744671;81;21001;-47
2022/08/29 04:28:04;;;;;;;8.43;6.15;;;;;;;14.64;100.00;94651.77;1743798;82;21036;-47
2022/08/29 04:30:32;;;;;;;7.00;6.30;;;;;;;14.68;100.00;94652.97;1742596;81;21144;-47
2022/08/29 04:33:00;;;;;;;8.13;7.08;;;;;;;14.67;100.00;94642.50;1735537;82;21138;-47
2022/08/29 04:35:28;;;;;;;9.85;6.42;;;;;;;14.68;100.00;94646.82;1736183;81;20986;-46
2022/08/29 04:37:56;;;;;;;10.55;7.83;;;;;;;14.70;100.00;94647.72;1736828;81;21060;-49
2022/08/29 04:40:24;;;;;;;8.33;6.87;;;;;;;14.69;100.00;94646.97;1736898;81;20962;-49
2022/08/29 04:42:52;;;;;;;6.70;6.10;;;;;;;14.71;100.00;94647.25;1749132;82;21469;-49
2022/08/29 04:45:21;;;;;;;27.93;17.25;;;;;;;14.76;100.00;94643.81;1746717;81;21400;-51
2022/08/29 04:47:49;;;;;;;12.50;7.83;;;;;;;14.79;100.00;94642.86;1748154;81;21060;-51
2022/08/29 04:50:19;;;;;;;7.10;6.50;;;;;;;14.80;100.00;94644.38;1748797;81;21131;-48
2022/08/29 04:52:50;;;;;;;7.67;6.75;;;;;;;14.79;100.00;94641.47;1744445;82;21489;-54
2022/08/29 04:55:19;;;;;;;7.55;6.75;;;;;;;14.79;100.00;94647.64;1744454;81;21060;-51
2022/08/29 04:57:48;;;;;;;10.95;5.45;;;;;;;14.78;100.00;94645.48;1748522;80;21112;-48
2022/08/29 05:00:18;;;;;;;10.65;7.03;;;;;;;14.80;100.00;94647.16;1742921;81;21742;-48
2022/08/29 05:02:46;;;;;;;12.55;6.35;;;;;;;14.80;100.00;94653.33;1741806;81;21477;-49
2022/08/29 05:05:14;;;;;;;9.30;5.85;;;;;;;14.79;100.00;94647.64;1722011;82;20970;-48
2022/08/29 05:07:42;;;;;;;11.63;5.62;;;;;;;14.79;100.00;94648.39;1748080;81;20981;-49
2022/08/29 05:10:21;;;;;;;7.92;7.15;;;;;;;14.87;100.00;94647.40;1750490;81;21231;-49
2022/08/29 05:12:45;;;;;;;9.15;6.67;;;;;;;14.84;100.00;94644.20;1739160;80;20976;-49
2022/08/29 05:15:14;;;;;;;7.33;6.05;;;;;;;14.86;100.00;94646.65;1722333;81;20977;-47
2022/08/29 05:17:43;;;;;;;8.90;5.70;;;;;;;14.97;100.00;94648.22;1746138;81;21024;-49
2022/08/29 05:20:11;;;;;;;8.00;5.67;;;;;;;15.06;100.00;94642.59;1747904;81;21033;-49
2022/08/29 05:22:40;;;;;;;8.95;6.33;;;;;;;15.12;100.00;94653.14;1749481;81;21197;-49
2022/08/29 05:25:10;;;;;;;7.90;6.75;;;;;;;15.17;100.00;94654.48;1741006;81;20938;-50
2022/08/29 05:27:40;;;;;;;9.15;5.90;;;;;;;15.21;100.00;94643.97;1746924;81;20997;-49
2022/08/29 05:30:09;;;;;;;6.30;5.25;;;;;;;15.22;99.95;94660.73;1728784;80;20971;-48
2022/08/29 05:32:37;;;;;;;7.83;6.00;;;;;;;15.27;99.75;94651.13;1753134;80;20980;-48
2022/08/29 05:35:05;;;;;;;10.63;6.95;;;;;;;15.32;99.50;94654.64;1726128;81;21844;-49
2022/08/29 05:37:33;;;;;;;8.30;6.65;;;;;;;15.37;99.43;94654.59;1732353;81;21156;-49
2022/08/29 05:40:02;;;;;;;15.48;8.83;;;;;;;15.43;99.44;94643.73;1726708;81;21528;-48
2022/08/29 05:42:30;;;;;;;9.98;7.03;;;;;;;15.52;99.37;94644.25;1727848;80;21110;-49
2022/08/29 05:45:00;;;;;;;11.10;9.25;;;;;;;15.59;98.87;94652.94;1738091;81;21061;-48
2022/08/29 05:47:27;;;;;;;6.22;5.55;;;;;;;15.63;98.35;94656.27;1723301;81;21249;-49
2022/08/29 05:49:55;;;;;;;11.88;6.42;;;;;;;15.67;98.09;94650.50;1733107;80;21468;-49
2022/08/29 05:52:24;;;;;;;10.28;7.10;;;;;;;15.75;98.61;94648.23;1743544;82;21005;-49
2022/08/29 05:54:52;;;;;;;8.83;6.10;;;;;;;15.89;98.74;94646.05;1740480;80;21000;-48
2022/08/29 05:57:22;;;;;;;9.38;6.37;;;;;;;16.04;98.32;94644.59;1751644;80;21671;-48
2022/08/29 05:59:51;;;;;;;8.75;6.83;;;;;;;16.13;97.47;94645.23;1739100;79;21828;-49
2022/08/29 06:02:19;;;;;;;11.48;6.17;;;;;;;16.26;97.40;94647.69;1738659;80;21187;-48
2022/08/29 06:04:48;;;;;;;11.75;6.00;;;;;;;16.39;97.07;94645.47;1744123;79;21540;-49
2022/08/29 06:07:16;;;;;;;7.15;6.45;;;;;;;16.55;96.28;94644.16;1711260;81;21661;-51
2022/08/29 06:09:43;;;;;;;11.50;6.47;;;;;;;16.64;95.64;94648.16;1723512;79;21029;-54
2022/08/29 06:12:13;;;;;;;12.63;6.75;;;;;;;16.75;94.82;94644.13;1743698;80;21225;-50
2022/08/29 06:15:00;;;;;;;7.45;5.85;;;;;;;16.82;94.24;94641.69;1689594;78;21223;-56
2022/08/29 06:17:28;;;;;;;13.62;6.17;;;;;;;16.89;93.68;94655.77;1619759;87;21176;-56
2022/08/29 06:19:56;;;;;;;43.90;29.72;;;;;;;16.94;93.40;94645.33;1621749;86;21089;-56
2022/08/29 06:22:24;;;;;;;11.03;8.35;;;;;;;17.00;92.94;94648.92;1608291;87;21053;-54
2022/08/29 06:24:54;;;;;;;9.23;7.28;;;;;;;17.02;92.72;94646.41;1611844;86;21223;-56
2022/08/29 06:27:22;;;;;;;12.50;7.15;;;;;;;17.06;92.25;94648.37;1611607;86;21162;-57
2022/08/29 06:29:49;;;;;;;12.07;7.00;;;;;;;17.15;92.31;94639.84;1623635;86;21094;-56
2022/08/29 06:32:19;;;;;;;10.95;7.28;;;;;;;17.21;92.09;94638.64;1619360;87;21168;-56
2022/08/29 06:34:48;;;;;;;13.43;7.92;;;;;;;17.27;92.00;94638.05;1634033;85;21400;-56
2022/08/29 06:37:16;;;;;;;11.22;7.00;;;;;;;17.35;92.04;94633.62;1612024;85;21117;-56
2022/08/29 06:39:44;;;;;;;15.95;7.75;;;;;;;17.43;92.05;94643.03;1619668;87;21365;-55
2022/08/29 06:42:12;;;;;;;16.90;7.58;;;;;;;17.53;91.62;94637.43;1625345;86;21051;-54
2022/08/29 06:44:40;;;;;;;11.03;7.35;;;;;;;17.66;91.21;94643.97;1637517;85;21020;-55
2022/08/29 06:47:08;;;;;;;12.15;7.40;;;;;;;17.80;89.80;94641.02;1628554;85;21621;-57
2022/08/29 06:49:36;;;;;;;20.77;9.10;;;;;;;17.92;88.42;94644.64;1611787;87;22337;-55
2022/08/29 06:52:04;;;;;;;7.85;7.05;;;;;;;18.02;87.20;94638.38;1617863;87;21063;-56
2022/08/29 06:54:32;;;;;;;10.18;6.72;;;;;;;18.17;85.99;94638.22;1659043;84;21071;-54
2022/08/29 06:57:01;;;;;;;11.08;7.37;;;;;;;18.31;84.54;94639.45;1677049;82;22080;-55
2022/08/29 06:59:30;;;;;;;11.75;7.67;;;;;;;18.47;84.73;94640.91;1639966;84;21570;-58
2022/08/29 07:01:59;;;;;;;14.85;8.28;;;;;;;18.62;84.33;94635.91;1663714;84;21348;-57
2022/08/29 07:04:26;;;;;;;16.30;7.92;;;;;;;18.79;83.88;94638.12;1652942;83;21069;-54
2022/08/29 07:06:55;;;;;;;11.48;7.58;;;;;;;18.96;83.06;94637.53;1651079;85;21519;-56
2022/08/29 07:09:24;;;;;;;9.70;7.28;;;;;;;19.13;82.23;94641.11;1634207;85;21531;-59
2022/08/29 07:11:52;;;;;;;18.80;8.53;;;;;;;19.26;81.17;94633.67;1646204;85;21077;-60
2022/08/29 07:14:21;;;;;;;11.25;7.95;;;;;;;19.32;80.43;94631.02;1644696;85;21121;-58
2022/08/29 07:16:49;;;;;;;13.08;7.50;;;;;;;19.45;80.47;94627.72;1656715;85;21142;-55
2022/08/29 07:19:17;;;;;;;13.68;8.00;;;;;;;19.59;80.21;94627.46;1662620;84;21059;-56
2022/08/29 07:21:47;;;;;;;12.93;7.62;;;;;;;19.72;79.18;94628.36;1668656;83;20890;-56
2022/08/29 07:24:15;;;;;;;12.30;7.70;;;;;;;19.80;78.72;94625.95;1652468;85;21143;-59
2022/08/29 07:26:43;;;;;;;12.60;7.50;;;;;;;19.92;78.53;94628.83;1638675;84;21183;-56
2022/08/29 07:29:17;;;;;;;10.58;8.80;;;;;;;20.03;78.24;94623.27;1639402;85;20950;-58
2022/08/29 07:31:46;;;;;;;11.25;8.90;;;;;;;20.14;78.09;94627.41;1648574;85;21069;-59
2022/08/29 07:34:14;;;;;;;15.83;8.65;;;;;;;20.24;77.78;94625.25;1653700;85;21060;-54
2022/08/29 07:36:42;;;;;;;17.48;8.20;;;;;;;20.37;77.98;94625.45;1623043;86;21076;-56
2022/08/29 07:39:14;;;;;;;15.30;9.00;;;;;;;20.52;78.31;94624.51;1615805;86;21395;-58
2022/08/29 07:41:43;;;;;;;24.00;9.27;;;;;;;20.70;77.78;94627.37;1677509;84;21153;-57
2022/08/29 07:44:11;;;;;;;16.10;9.68;;;;;;;20.83;77.47;94622.75;1671373;83;21044;-56
2022/08/29 07:46:39;;;;;;;14.83;8.93;;;;;;;20.94;76.63;94619.87;1644414;84;21495;-55
2022/08/29 07:49:07;;;;;;;15.78;8.85;;;;;;;21.05;76.36;94615.62;1674085;84;21077;-57
2022/08/29 07:51:36;;;;;;;8.98;7.78;;;;;;;21.19;75.13;94613.75;1679067;84;21112;-57
2022/08/29 07:54:03;;;;;;;10.10;7.58;;;;;;;21.28;74.07;94616.99;1657167;82;20993;-57
2022/08/29 07:56:36;;;;;;;13.55;8.35;;;;;;;21.36;73.85;94612.37;1659681;84;21213;-57
2022/08/29 07:59:03;;;;;;;12.33;8.43;;;;;;;21.47;73.13;94607.33;1657535;84;21036;-57
2022/08/29 08:01:32;;;;;;;16.90;7.65;;;;;;;21.59;72.44;94610.14;1650731;85;21016;-56
2022/08/29 08:04:00;;;;;;;9.75;7.60;;;;;;;21.68;71.52;94607.80;1653039;85;21180;-56
2022/08/29 08:06:28;;;;;;;15.50;8.00;;;;;;;21.78;69.93;94615.22;1678477;83;21117;-56
2022/08/29 08:08:56;;;;;;;11.30;7.62;;;;;;;21.87;69.46;94612.09;1655039;84;21846;-57
2022/08/29 08:11:25;;;;;;;12.82;8.10;;;;;;;22.02;68.58;94606.20;1624255;84;21117;-56
2022/08/29 08:13:54;;;;;;;15.53;8.70;;;;;;;22.17;68.43;94601.73;1669664;84;21586;-56
2022/08/29 08:16:23;;;;;;;15.65;9.05;;;;;;;22.36;68.30;94606.74;1641641;85;21936;-57
2022/08/29 08:18:53;;;;;;;12.23;8.10;;;;;;;22.49;66.83;94607.52;1641308;84;21027;-57
2022/08/29 08:21:21;;;;;;;13.70;7.40;;;;;;;22.60;65.74;94596.92;1651583;84;21089;-56
2022/08/29 08:23:49;;;;;;;13.83;7.33;;;;;;;22.72;65.52;94598.94;1666662;84;21073;-57
2022/08/29 08:26:16;;;;;;;10.10;7.20;;;;;;;22.85;65.00;94602.58;1667904;84;21053;-57
2022/08/29 08:28:44;;;;;;;10.32;7.47;;;;;;;22.96;64.12;94592.62;1654715;84;21188;-58
2022/08/29 08:31:13;;;;;;;9.88;6.70;;;;;;;23.06;63.73;94589.53;1667336;84;21635;-56
2022/08/29 08:33:41;;;;;;;13.35;7.15;;;;;;;23.15;63.77;94587.78;1663099;83;21068;-56
2022/08/29 08:36:26;;;;;;;11.45;7.45;;;;;;;23.27;64.11;94589.14;1664274;84;21197;-57
2022/08/29 08:38:54;;;;;;;12.03;7.22;;;;;;;23.39;63.56;94589.07;1665286;83;21108;-57
2022/08/29 08:41:52;;;;;;;8.58;6.30;;;;;;;23.51;62.85;94581.99;1678424;84;21131;-57
2022/08/29 08:44:25;;;;;;;9.70;6.62;;;;;;;23.62;62.89;94586.67;1657896;84;21091;-57
2022/08/29 08:47:00;;;;;;;13.20;8.45;;;;;;;23.73;62.77;94577.41;1647596;85;21089;-58
2022/08/29 08:49:45;;;;;;;11.33;6.80;;;;;;;23.84;63.10;94583.51;1627063;85;21021;-59
2022/08/29 08:52:23;;;;;;;10.48;7.05;;;;;;;23.94;62.95;94579.74;1667803;83;21138;-61
2022/08/29 08:55:00;;;;;;;10.70;7.17;;;;;;;24.06;63.25;94588.84;1656292;85;21376;-58
2022/08/29 08:57:35;;;;;;;15.90;6.72;;;;;;;24.19;63.21;94582.50;1657998;84;22301;-57
2022/08/29 09:00:05;;;;;;;11.73;6.60;;;;;;;24.33;63.14;94576.33;1644646;84;21552;-55
2022/08/29 09:02:47;;;;;;;10.72;6.37;;;;;;;24.46;62.88;94578.38;1638802;83;21055;-57
2022/08/29 09:05:29;;;;;;;10.43;6.62;;;;;;;24.61;63.01;94576.55;1591262;85;21488;-54
2022/08/29 09:08:27;;;;;;;17.98;6.85;;;;;;;24.77;62.23;94573.30;1636603;84;21450;-57
2022/08/29 09:11:00;;;;;;;12.53;7.58;;;;;;;24.93;62.49;94578.56;1631544;85;21079;-60
2022/08/29 09:13:55;;;;;;;10.58;6.90;;;;;;;25.14;62.49;94577.97;1622518;85;21119;-55
2022/08/29 09:16:37;;;;;;;8.60;5.87;;;;;;;25.30;61.99;94573.30;1644137;83;21142;-57
2022/08/29 09:19:08;;;;;;;12.55;7.33;;;;;;;25.48;62.23;94577.33;1660619;84;21558;-57
2022/08/29 09:21:40;;;;;;;8.25;6.62;;;;;;;25.64;61.24;94579.00;1649036;85;21237;-56
2022/08/29 09:24:33;;;;;;;10.65;6.00;;;;;;;25.76;60.43;94579.48;1646717;85;21115;-57
2022/08/29 09:27:00;;;;;;;11.12;6.17;;;;;;;25.85;60.01;94581.19;1643317;83;21704;-56
2022/08/29 09:29:29;;;;;;;15.15;7.03;;;;;;;25.97;59.47;94577.53;1641857;83;21178;-55
2022/08/29 09:32:13;;;;;;;17.98;7.25;;;;;;;26.09;60.09;94577.36;1645476;84;21056;-55
2022/08/29 09:34:45;;;;;;;13.00;6.78;;;;;;;26.28;59.73;94573.64;1641420;85;22005;-55
2022/08/29 09:37:33;;;;;;;14.20;6.60;;;;;;;26.48;58.29;94576.34;1651678;85;21063;-58
2022/08/29 09:40:12;;;;;;;13.28;6.55;;;;;;;26.62;58.38;94567.85;1642026;85;21524;-62
2022/08/29 09:42:44;;;;;;;12.10;6.00;;;;;;;26.79;57.84;94566.08;1626770;86;21106;-57
2022/08/29 09:45:23;;;;;;;11.20;5.78;;;;;;;26.96;58.77;94559.28;1636267;83;21081;-55
2022/08/29 09:48:10;;;;;;;10.70;5.67;;;;;;;27.17;56.99;94558.54;1634658;86;21210;-56
2022/08/29 09:50:37;;;;;;;12.28;5.78;;;;;;;27.22;56.60;94554.78;1575596;87;21422;-55
2022/08/29 09:53:05;;;;;;;13.55;6.78;;;;;;;27.22;56.42;94556.20;1626093;85;21236;-56
2022/08/29 09:55:37;;;;;;;15.10;6.40;;;;;;;27.29;56.12;94559.72;1649401;83;21094;-56
2022/08/29 09:58:06;;;;;;;;;;;;;;;27.25;55.42;94563.55;1652046;85;21032;-58
2022/08/29 10:00:37;;;;;;;14.55;6.92;;;;;;;27.18;54.62;94562.88;1600625;88;21935;-53
2022/08/29 10:03:08;;;;;;;18.27;6.15;;;;;;;27.05;54.36;94560.16;1610538;85;21006;-60
2022/08/29 10:05:45;;;;;;;8.93;5.72;;;;;;;26.94;54.31;94556.27;1630298;85;21568;-57
2022/08/29 10:08:36;;;;;;;19.02;6.95;;;;;;;26.89;54.09;94567.05;1623546;87;21201;-59
2022/08/29 10:11:48;;;;;;;12.78;6.33;;;;;;;26.92;53.65;94567.37;1607753;87;21241;-57
2022/08/29 10:14:31;;;;;;;11.12;5.85;;;;;;;26.94;53.22;94566.15;1624999;86;22249;-56
2022/08/29 10:20:10;;;;;;;15.85;6.15;;;;;;;27.30;53.26;94576.77;1613600;87;21060;-57
2022/08/29 10:23:00;;;;;;;15.03;6.05;;;;;;;27.70;53.13;94576.38;1628341;86;21547;-55
2022/08/29 10:25:40;;;;;;;14.18;5.60;;;;;;;28.19;52.91;94578.24;1649671;84;21722;-57
2022/08/29 10:28:40;;;;;;;16.20;6.83;;;;;;;28.89;50.24;94576.27;1658952;84;21322;-54
2022/08/29 10:31:21;;;;;;;9.50;5.17;;;;;;;29.59;47.37;94577.70;1639862;85;21093;-55
2022/08/29 10:34:27;;;;;;;7.85;5.10;;;;;;;30.26;45.01;94575.83;1635268;86;21184;-56
2022/08/29 10:37:09;;;;;;;15.80;5.47;;;;;;;30.88;44.42;94576.86;1616570;86;21079;-56
2022/08/29 10:39:49;;;;;;;9.48;5.35;;;;;;;31.53;43.99;94575.16;1643376;86;21036;-57
2022/08/29 10:42:20;;;;;;;15.18;5.55;;;;;;;31.92;42.37;94566.20;1599671;88;21832;-56
2022/08/29 10:45:33;;;;;;;18.10;5.67;;;;;;;32.31;41.44;94571.47;1648661;85;21204;-56
2022/08/29 10:48:10;;;;;;;10.55;5.25;;;;;;;32.51;40.89;94577.31;1660204;85;21160;-57
2022/08/29 10:51:04;;;;;;;15.30;4.83;;;;;;;32.45;39.38;94576.84;1655427;85;20993;-57
2022/08/29 10:53:37;;;;;;;11.45;4.78;;;;;;;32.20;40.93;94579.17;1670781;84;21009;-58
2022/08/29 10:56:16;;;;;;;13.48;7.00;;;;;;;32.18;42.41;94588.95;1665511;84;21309;-61
2022/08/29 10:59:13;;;;;;;6.75;4.35;;;;;;;31.98;43.02;94585.26;1640179;85;21076;-57
2022/08/29 11:01:49;;;;;;;7.53;4.85;;;;;;;31.63;44.16;94591.61;1652682;83;21079;-59
2022/08/29 11:04:30;;;;;;;11.60;5.80;;;;;;;31.04;43.92;94589.56;1633241;85;21018;-59
2022/08/29 11:07:35;;;;;;;8.03;5.28;;;;;;;30.60;45.27;94590.13;1648512;85;21161;-56
2022/08/29 11:10:09;;;;;;;10.53;5.15;;;;;;;30.15;45.45;94594.73;1633590;86;21179;-56
2022/08/29 11:13:03;;;;;;;14.20;6.10;;;;;;;29.67;46.46;94592.59;1629950;85;21117;-58
2022/08/29 11:15:38;;;;;;;10.20;5.40;;;;;;;29.34;45.78;94591.02;1623269;87;21040;-56
2022/08/29 11:18:14;;;;;;;9.85;5.05;;;;;;;29.23;46.00;94590.05;1634768;87;21086;-57
2022/08/29 11:20:54;;;;;;;14.47;5.65;;;;;;;29.13;44.71;94595.48;1632884;86;21053;-60
2022/08/29 11:23:40;;;;;;;8.75;5.50;;;;;;;28.99;44.90;94596.35;1628506;87;21517;-57
2022/08/29 11:26:23;;;;;;;12.45;5.60;;;;;;;28.91;45.17;94599.14;1632403;86;21293;-58
2022/08/29 11:29:05;;;;;;;11.30;5.80;;;;;;;28.81;45.00;94602.43;1615835;87;21031;-57
2022/08/29 11:32:21;;;;;;;11.22;6.12;;;;;;;28.68;44.96;94611.13;1623395;86;21469;-57
2022/08/29 11:35:19;;;;;;;10.03;5.28;;;;;;;28.51;45.16;94616.62;1590257;89;21106;-61
2022/08/29 11:38:07;;;;;;;12.43;6.25;;;;;;;28.27;45.57;94615.13;1589722;87;21298;-56
2022/08/29 11:40:57;;;;;;;14.83;6.20;;;;;;;28.13;45.78;94624.34;1622340;87;21149;-58
2022/08/29 11:43:38;;;;;;;11.33;6.62;;;;;;;28.07;50.04;94631.59;1628175;86;21075;-60
2022/08/29 11:46:22;;;;;;;16.40;7.72;;;;;;;27.88;52.34;94634.02;1624108;86;21152;-61
2022/08/29 11:48:55;;;;;;;12.85;6.87;;;;;;;28.23;53.30;94633.12;1587366;87;21925;-59
2022/08/29 11:51:36;;;;;;;9.00;5.97;;;;;;;28.84;54.44;94631.80;1583589;87;21294;-56
2022/08/29 11:54:31;;;;;;;14.20;7.12;;;;;;;29.53;53.32;94627.45;1646544;84;21181;-58